Time;durP1;ratioP1;P1;durP2;ratioP2;P2;SDS_P1;SDS_P2;PMS_P1;PMS_P2;Temp;Humidity;BMP_temperature;BMP_pressure;BME280_temperature;BME280_humidity;BME280_pressure;Samples;Min_cycle;Max_cycle;Signal;HPM_P1;HPM_P2
2022/05/07 00:00:36;;;;;;;;;;;;;;;15.35;100.00;100216.00;6121579;23;19924;-83
2022/05/07 00:03:01;;;;;;;;;;;;;;;15.39;100.00;100216.63;6121396;23;19932;-84
2022/05/07 00:05:27;;;;;;;;;;;;;;;15.26;100.00;100218.78;6057641;23;20037;-84
2022/05/07 00:07:53;;;;;;;;;;;;;;;15.31;100.00;100215.38;6097266;23;19948;-84
2022/05/07 00:10:19;;;;;;;;;;;;;;;15.33;100.00;100212.88;6123749;23;19919;-84
2022/05/07 00:12:44;;;;;;;;;;;;;;;15.34;100.00;100220.03;6048691;23;19909;-84
2022/05/07 00:15:10;;;;;;;;;;;;;;;15.27;100.00;100214.75;6073826;23;20000;-84
2022/05/07 00:20:19;;;;;;;;;;;;;;;15.22;100.00;100201.41;6101608;23;19924;-84
2022/05/07 00:22:45;;;;;;;;;;;;;;;15.16;100.00;100206.84;6073803;23;19916;-91
2022/05/07 00:25:10;;;;;;;;;;;;;;;15.12;100.00;100203.41;6124019;23;19936;-84
2022/05/07 00:27:36;;;;;;;;;;;;;;;15.15;100.00;100208.06;6096386;23;19913;-84
2022/05/07 00:30:02;;;;;;;;;;;;;;;15.12;100.00;100211.03;6097152;23;19918;-84
2022/05/07 00:32:27;;;;;;;;;;;;;;;15.17;100.00;100210.38;6072776;23;19913;-84
2022/05/07 00:34:53;;;;;;;;;;;;;;;15.10;100.00;100194.72;6123343;23;19909;-84
2022/05/07 00:37:18;;;;;;;;;;;;;;;15.17;100.00;100221.56;6098105;23;19912;-84
2022/05/07 00:39:43;;;;;;;;;;;;;;;15.17;100.00;100202.78;6072591;23;20342;-84
2022/05/07 00:42:09;;;;;;;;;;;;;;;15.15;100.00;100201.72;6097693;23;20247;-84
2022/05/07 00:44:34;;;;;;;;;;;;;;;15.16;100.00;100192.88;6048646;23;20012;-84
2022/05/07 00:47:07;;;;;;;;;;;;;;;15.16;100.00;100181.69;6048313;23;20413;-84
2022/05/07 00:49:32;;;;;;;;;;;;;;;15.17;100.00;100199.22;6073694;23;19925;-84
2022/05/07 00:51:58;;;;;;;;;;;;;;;15.18;100.00;100206.34;6073114;23;19938;-84
2022/05/07 00:54:23;;;;;;;;;;;;;;;15.20;100.00;100203.91;6122021;23;20319;-84
2022/05/07 00:56:49;;;;;;;;;;;;;;;15.25;100.00;100201.25;6096889;23;19959;-84
2022/05/07 00:59:14;;;;;;;;;;;;;;;15.28;100.00;100202.34;6071789;23;19979;-84
2022/05/07 01:01:40;;;;;;;;;;;;;;;15.25;100.00;100212.41;6055724;23;19920;-84
2022/05/07 01:04:06;;;;;;;;;;;;;;;15.28;100.00;100205.91;6147761;23;19922;-84
2022/05/07 01:06:34;;;;;;;;;;;;;;;15.32;100.00;100205.75;6150203;23;19912;-85
2022/05/07 01:08:59;;;;;;;;;;;;;;;15.29;100.00;100193.47;6151100;23;19936;-84
2022/05/07 01:11:26;;;;;;;;;;;;;;;15.26;100.00;100190.84;6151116;23;19916;-84
2022/05/07 01:13:55;;;;;;;;;;;;;;;15.21;100.00;100188.66;6149843;23;20223;-84
2022/05/07 01:16:23;;;;;;;;;;;;;;;15.16;100.00;100180.91;6151812;23;20005;-84
2022/05/07 01:18:48;;;;;;;;;;;;;;;15.08;100.00;100190.84;6126255;23;19916;-83
2022/05/07 01:21:15;;;;;;;;;;;;;;;15.05;100.00;100186.94;6150357;23;19936;-84
2022/05/07 01:23:42;;;;;;;;;;;;;;;15.13;100.00;100176.22;6150892;23;19916;-84
2022/05/07 01:26:07;;;;;;;;;;;;;;;15.14;100.00;100186.19;6150357;23;19908;-84
2022/05/07 01:28:35;;;;;;;;;;;;;;;15.12;100.00;100197.06;6151772;23;19917;-84
2022/05/07 01:31:02;;;;;;;;;;;;;;;15.10;100.00;100199.53;6125453;23;20253;-84
2022/05/07 01:33:28;;;;;;;;;;;;;;;15.11;100.00;100187.91;6150080;23;19992;-84
2022/05/07 01:35:54;;;;;;;;;;;;;;;15.10;100.00;100188.34;6152745;23;20310;-84
2022/05/07 01:38:21;;;;;;;;;;;;;;;15.05;100.00;100180.56;6159166;23;19912;-96
2022/05/07 01:40:47;;;;;;;;;;;;;;;15.06;100.00;100187.72;6152792;23;19912;-84
2022/05/07 01:43:12;;;;;;;;;;;;;;;15.00;100.00;100193.16;6154165;23;19948;-84
2022/05/07 01:45:39;;;;;;;;;;;;;;;14.91;100.00;100187.56;6152625;23;19915;-84
2022/05/07 01:48:11;;;;;;;;;;;;;;;14.90;100.00;100186.78;6150913;23;20234;-84
2022/05/07 01:50:42;;;;;;;;;;;;;;;14.90;100.00;100192.38;6153292;23;19919;-84
2022/05/07 01:53:08;;;;;;;;;;;;;;;14.92;100.00;100189.88;6152952;23;19913;-84
2022/05/07 01:55:34;;;;;;;;;;;;;;;14.94;100.00;100193.00;6151066;23;19935;-84
2022/05/07 01:57:59;;;;;;;;;;;;;;;14.94;100.00;100190.19;6159626;23;19917;-94
2022/05/07 02:00:25;;;;;;;;;;;;;;;14.92;100.00;100200.28;6146624;23;19904;-94
2022/05/07 02:02:50;;;;;;;;;;;;;;;14.87;100.00;100198.09;6162083;23;19912;-95
2022/05/07 02:05:20;;;;;;;;;;;;;;;14.83;100.00;100191.88;6115929;23;19913;-95
2022/05/07 02:07:46;;;;;;;;;;;;;;;14.77;100.00;100191.72;6165328;23;19924;-95
2022/05/07 02:10:13;;;;;;;;;;;;;;;14.77;100.00;100188.13;6165216;23;19912;-95
2022/05/07 02:12:39;;;;;;;;;;;;;;;14.73;100.00;100182.69;6166743;23;19912;-95
2022/05/07 02:15:06;;;;;;;;;;;;;;;14.71;100.00;100184.41;6147664;23;19912;-95
2022/05/07 02:17:31;;;;;;;;;;;;;;;14.68;100.00;100183.31;6144327;23;19912;-96
2022/05/07 02:19:57;;;;;;;;;;;;;;;14.62;100.00;100182.38;6166793;23;20004;-94
2022/05/07 02:22:22;;;;;;;;;;;;;;;14.56;100.00;100178.63;6164114;23;19951;-95
2022/05/07 02:24:48;;;;;;;;;;;;;;;14.54;100.00;100183.91;6131994;23;19912;-94
2022/05/07 02:27:20;;;;;;;;;;;;;;;14.47;100.00;100181.41;6132096;23;19983;-94
2022/05/07 02:29:46;;;;;;;;;;;;;;;14.48;100.00;100189.28;6155078;23;20346;-94
2022/05/07 02:32:13;;;;;;;;;;;;;;;14.49;100.00;100181.69;6159270;23;19912;-94
2022/05/07 02:34:42;;;;;;;;;;;;;;;14.46;100.00;100179.84;6156310;23;19917;-95
2022/05/07 02:37:16;;;;;;;;;;;;;;;14.43;100.00;100180.75;6153326;23;19916;-84
2022/05/07 02:39:48;;;;;;;;;;;;;;;14.45;100.00;100183.84;6151796;23;20108;-84
2022/05/07 02:45:01;;;;;;;;;;;;;;;14.37;100.00;100177.00;6151827;23;19971;-84
2022/05/07 02:47:27;;;;;;;;;;;;;;;14.39;100.00;100168.97;6152208;23;19916;-84
2022/05/07 02:49:53;;;;;;;;;;;;;;;14.35;100.00;100169.13;6151721;23;19909;-84
2022/05/07 02:52:19;;;;;;;;;;;;;;;14.30;100.00;100182.84;6151677;23;19913;-84
2022/05/07 02:54:45;;;;;;;;;;;;;;;14.27;100.00;100172.63;6126112;23;20033;-84
2022/05/07 02:57:10;;;;;;;;;;;;;;;14.27;100.00;100183.78;6150922;23;19916;-84
2022/05/07 02:59:39;;;;;;;;;;;;;;;14.24;100.00;100179.88;6152215;23;19908;-84
2022/05/07 03:02:05;;;;;;;;;;;;;;;14.23;100.00;100183.91;6152739;23;19919;-84
2022/05/07 03:04:30;;;;;;;;;;;;;;;14.21;100.00;100178.00;6128245;23;20003;-84
2022/05/07 03:06:56;;;;;;;;;;;;;;;14.20;100.00;100172.88;6153038;23;19948;-84
2022/05/07 03:09:21;;;;;;;;;;;;;;;14.19;100.00;100182.50;6151828;23;19913;-84
2022/05/07 03:11:47;;;;;;;;;;;;;;;14.20;100.00;100184.81;6152944;23;20386;-84
2022/05/07 03:14:18;;;;;;;;;;;;;;;14.18;100.00;100173.34;6153216;23;20323;-84
2022/05/07 03:16:46;;;;;;;;;;;;;;;14.15;100.00;100176.28;6153324;23;19912;-84
2022/05/07 03:19:12;;;;;;;;;;;;;;;14.15;100.00;100171.47;6154105;23;20254;-84
2022/05/07 03:21:39;;;;;;;;;;;;;;;14.13;100.00;100173.16;6150489;23;19917;-84
2022/05/07 03:24:04;;;;;;;;;;;;;;;14.09;100.00;100172.53;6153707;23;19975;-84
2022/05/07 03:26:30;;;;;;;;;;;;;;;14.07;100.00;100163.84;6152907;23;20292;-84
2022/05/07 03:28:55;;;;;;;;;;;;;;;14.06;100.00;100167.84;6150180;23;20355;-84
2022/05/07 03:31:21;;;;;;;;;;;;;;;14.04;100.00;100171.09;6153303;23;20321;-84
2022/05/07 03:33:47;;;;;;;;;;;;;;;13.98;100.00;100173.72;6126674;23;19920;-84
2022/05/07 03:36:15;;;;;;;;;;;;;;;14.00;100.00;100176.81;6151732;23;19931;-84
2022/05/07 03:38:40;;;;;;;;;;;;;;;13.99;100.00;100175.25;6152121;23;19917;-84
2022/05/07 03:41:19;;;;;;;;;;;;;;;13.98;100.00;100173.72;6149797;23;19916;-84
2022/05/07 03:43:44;;;;;;;;;;;;;;;13.99;100.00;100180.84;6127060;23;19917;-84
2022/05/07 03:46:10;;;;;;;;;;;;;;;13.99;100.00;100182.88;6151608;23;20312;-84
2022/05/07 03:48:41;;;;;;;;;;;;;;;13.96;100.00;100192.91;6152243;23;19913;-84
2022/05/07 03:51:07;;;;;;;;;;;;;;;13.94;100.00;100198.19;6127005;23;19916;-84
2022/05/07 03:53:33;;;;;;;;;;;;;;;13.93;100.00;100193.03;6127595;23;19909;-84
2022/05/07 03:56:12;;;;;;;;;;;;;;;13.91;100.00;100193.50;6152239;23;19912;-84
2022/05/07 03:58:38;;;;;;;;;;;;;;;13.90;100.00;100197.53;6152240;23;20246;-85
2022/05/07 04:01:04;;;;;;;;;;;;;;;13.91;100.00;100196.28;6127375;23;19928;-84
2022/05/07 04:03:30;;;;;;;;;;;;;;;13.92;100.00;100197.84;6152039;23;19912;-84
2022/05/07 04:05:59;;;;;;;;;;;;;;;13.92;100.00;100192.25;6125606;23;19913;-84
2022/05/07 04:08:26;;;;;;;;;;;;;;;13.93;100.00;100199.41;6149497;23;20366;-84
2022/05/07 04:10:52;;;;;;;;;;;;;;;13.95;100.00;100196.16;6151756;23;19966;-85
2022/05/07 04:13:22;;;;;;;;;;;;;;;13.97;100.00;100202.84;6150488;23;20319;-84
2022/05/07 04:15:56;;;;;;;;;;;;;;;13.98;100.00;100207.19;6150069;23;19908;-83
2022/05/07 04:18:24;;;;;;;;;;;;;;;13.98;100.00;100201.59;6126567;23;20017;-84
2022/05/07 04:20:54;;;;;;;;;;;;;;;13.99;100.00;100205.94;6150338;23;19982;-85
2022/05/07 04:23:21;;;;;;;;;;;;;;;14.01;100.00;100203.47;6150777;23;19912;-84
2022/05/07 04:25:47;;;;;;;;;;;;;;;13.99;100.00;100207.97;6124397;23;19916;-83
2022/05/07 04:28:16;;;;;;;;;;;;;;;14.01;100.00;100217.44;6148779;23;19909;-83
2022/05/07 04:30:44;;;;;;;;;;;;;;;14.03;100.00;100212.16;6150320;23;19970;-84
2022/05/07 04:33:11;;;;;;;;;;;;;;;14.02;100.00;100215.41;6126837;23;19924;-86
2022/05/07 04:35:37;;;;;;;;;;;;;;;14.02;100.00;100216.19;6128312;23;19924;-86
2022/05/07 04:38:05;;;;;;;;;;;;;;;14.01;100.00;100219.44;6148847;23;19919;-87
2022/05/07 04:40:33;;;;;;;;;;;;;;;13.97;100.00;100211.19;6151299;23;19935;-87
2022/05/07 04:42:59;;;;;;;;;;;;;;;13.98;100.00;100229.50;6124633;23;20661;-87
2022/05/07 04:45:28;;;;;;;;;;;;;;;14.01;100.00;100227.78;6150951;23;19991;-87
2022/05/07 04:48:11;;;;;;;;;;;;;;;14.01;100.00;100245.31;6150479;23;19932;-88
2022/05/07 04:50:36;;;;;;;;;;;;;;;14.02;100.00;100235.72;6126377;23;20318;-87
2022/05/07 04:53:12;;;;;;;;;;;;;;;14.03;100.00;100242.84;6152474;23;19912;-87
2022/05/07 04:55:39;;;;;;;;;;;;;;;14.03;100.00;100245.63;6126653;23;19923;-86
2022/05/07 04:58:05;;;;;;;;;;;;;;;14.03;100.00;100256.78;6149135;23;20368;-87
2022/05/07 05:00:37;;;;;;;;;;;;;;;13.99;100.00;100255.38;6103113;23;19919;-87
2022/05/07 05:03:14;;;;;;;;;;;;;;;14.10;100.00;100264.13;6149999;23;19912;-87
2022/05/07 05:05:42;;;;;;;;;;;;;;;14.14;100.00;100263.97;6102683;23;19916;-87
2022/05/07 05:08:15;;;;;;;;;;;;;;;14.12;100.00;100250.47;6127610;23;19936;-87
2022/05/07 05:10:41;;;;;;;;;;;;;;;14.15;100.00;100248.81;6102117;23;20008;-87
2022/05/07 05:13:08;;;;;;;;;;;;;;;14.16;100.00;100262.28;6125230;23;19915;-87
2022/05/07 05:15:39;;;;;;;;;;;;;;;14.21;100.00;100269.28;6127402;23;19959;-85
2022/05/07 05:18:13;;;;;;;;;;;;;;;14.21;100.00;100266.50;6127712;23;19917;-86
2022/05/07 05:20:39;;;;;;;;;;;;;;;14.20;100.00;100256.56;6126906;23;20322;-87
2022/05/07 05:23:28;;;;;;;;;;;;;;;14.22;100.00;100260.47;6130989;23;19912;-87
2022/05/07 05:25:53;;;;;;;;;;;;;;;14.23;100.00;100255.69;6153048;23;19966;-86
2022/05/07 05:28:40;;;;;;;;;;;;;;;14.27;100.00;100245.16;6152168;23;20228;-94
2022/05/07 05:31:09;;;;;;;;;;;;;;;14.33;100.00;100255.25;6128514;23;20245;-94
2022/05/07 05:33:39;;;;;;;;;;;;;;;14.39;100.00;100263.84;6128925;23;19912;-94
2022/05/07 05:36:10;;;;;;;;;;;;;;;14.42;100.00;100262.94;6129359;23;19916;-94
2022/05/07 05:38:40;;;;;;;;;;;;;;;14.47;100.00;100253.97;6106005;23;19919;-96
2022/05/07 05:41:07;;;;;;;;;;;;;;;14.48;100.00;100249.91;6104404;23;19975;-95
2022/05/07 05:43:38;;;;;;;;;;;;;;;14.52;100.00;100239.38;6129090;23;19913;-92
2022/05/07 05:46:05;;;;;;;;;;;;;;;14.55;100.00;100246.88;6151518;23;20390;-93
2022/05/07 05:48:30;;;;;;;;;;;;;;;14.56;100.00;100253.97;6125231;23;19947;-87
2022/05/07 05:50:57;;;;;;;;;;;;;;;14.55;100.00;100260.03;6149173;23;20243;-85
2022/05/07 05:53:25;;;;;;;;;;;;;;;14.56;100.00;100253.97;6124796;23;19936;-86
2022/05/07 05:55:52;;;;;;;;;;;;;;;14.58;100.00;100259.13;6149743;23;19947;-87
2022/05/07 05:58:24;;;;;;;;;;;;;;;14.61;100.00;100264.56;6151051;23;19991;-87
2022/05/07 06:00:52;;;;;;;;;;;;;;;14.65;100.00;100262.41;6149373;23;20337;-87
2022/05/07 06:03:18;;;;;;;;;;;;;;;14.67;100.00;100251.56;6149759;23;19951;-87
2022/05/07 06:05:43;;;;;;;;;;;;;;;14.67;100.00;100276.69;6126602;23;19916;-86
2022/05/07 06:08:12;;;;;;;;;;;;;;;14.69;100.00;100282.59;6125274;23;19926;-87
2022/05/07 06:10:38;;;;;;;;;;;;;;;14.73;100.00;100283.22;6150242;23;20220;-87
2022/05/07 06:13:08;;;;;;;;;;;;;;;14.73;100.00;100288.81;6125983;23;19999;-86
2022/05/07 06:15:39;;;;;;;;;;;;;;;14.80;100.00;100294.09;6149782;23;19908;-87
2022/05/07 06:18:05;;;;;;;;;;;;;;;14.78;100.00;100285.41;6125552;23;19912;-87
2022/05/07 06:20:31;;;;;;;;;;;;;;;14.85;100.00;100284.34;6125900;23;19912;-85
2022/05/07 06:22:57;;;;;;;;;;;;;;;14.93;100.00;100286.41;6125401;23;19921;-87
2022/05/07 06:28:11;;;;;;;;;;;;;;;15.04;100.00;100288.78;6130995;23;19912;-94
2022/05/07 06:30:39;;;;;;;;;;;;;;;15.09;100.00;100293.72;6105386;23;19908;-95
2022/05/07 06:33:09;;;;;;;;;;;;;;;15.09;100.00;100276.97;6129904;23;20343;-94
2022/05/07 06:35:54;;;;;;;;;;;;;;;15.13;100.00;100277.59;6132685;23;20350;-95
2022/05/07 06:38:26;;;;;;;;;;;;;;;15.14;100.00;100289.56;6107580;23;19920;-94
2022/05/07 06:40:56;;;;;;;;;;;;;;;15.20;100.00;100294.09;6129588;23;19987;-96
2022/05/07 06:43:22;;;;;;;;;;;;;;;15.30;100.00;100294.88;6129099;23;20330;-94
2022/05/07 06:46:06;;;;;;;;;;;;;;;15.41;100.00;100287.59;6155112;23;19963;-93
2022/05/07 06:48:38;;;;;;;;;;;;;;;15.50;100.00;100294.47;6155321;23;19916;-95
2022/05/07 06:51:09;;;;;;;;;;;;;;;15.59;100.00;100298.03;6107578;23;19921;-94
2022/05/07 06:53:35;;;;;;;;;;;;;;;15.65;100.00;100301.75;6129007;23;19976;-95
2022/05/07 06:56:01;;;;;;;;;;;;;;;15.78;100.00;100293.22;6129024;23;19908;-95
2022/05/07 06:58:32;;;;;;;;;;;;;;;15.89;100.00;100298.38;6156253;23;19971;-93
2022/05/07 07:01:01;;;;;;;;;;;;;;;15.97;100.00;100311.56;6138620;23;19916;-94
2022/05/07 07:03:26;;;;;;;;;;;;;;;16.04;100.00;100310.47;6152417;23;19913;-87
2022/05/07 07:05:53;;;;;;;;;;;;;;;16.07;100.00;100312.31;6127103;23;19988;-87
2022/05/07 07:08:19;;;;;;;;;;;;;;;16.11;99.57;100305.31;6127131;23;19916;-87
2022/05/07 07:10:45;;;;;;;;;;;;;;;16.17;99.84;100309.06;6127224;23;19919;-86
2022/05/07 07:13:11;;;;;;;;;;;;;;;16.24;98.67;100313.56;6152669;23;19925;-86
2022/05/07 07:15:39;;;;;;;;;;;;;;;16.28;98.76;100308.56;6127092;23;19916;-87
2022/05/07 07:18:09;;;;;;;;;;;;;;;16.32;98.30;100306.38;6151319;23;19908;-86
2022/05/07 07:20:44;;;;;;;;;;;;;;;16.29;98.01;100310.13;6127447;23;19991;-87
2022/05/07 07:23:12;;;;;;;;;;;;;;;16.28;98.06;100314.16;6103576;23;19912;-94
2022/05/07 07:25:39;;;;;;;;;;;;;;;16.37;97.79;100308.56;6105829;23;19932;-95
2022/05/07 07:28:05;;;;;;;;;;;;;;;16.44;97.18;100308.22;6154542;23;19913;-95
2022/05/07 07:30:30;;;;;;;;;;;;;;;16.49;97.12;100313.19;6129652;23;19909;-95
2022/05/07 07:32:56;;;;;;;;;;;;;;;16.64;96.69;100314.09;6153134;23;19912;-95
2022/05/07 07:35:21;;;;;;;;;;;;;;;16.70;96.31;100312.19;6153726;23;20247;-95
2022/05/07 07:37:46;;;;;;;;;;;;;;;16.78;95.53;100309.88;6154056;23;20040;-95
2022/05/07 07:40:12;;;;;;;;;;;;;;;16.83;94.13;100309.19;6154998;23;20357;-94
2022/05/07 07:42:40;;;;;;;;;;;;;;;16.96;94.99;100303.38;6154127;23;19943;-94
2022/05/07 07:48:03;;;;;;;;;;;;;;;17.36;93.01;100303.00;6155213;23;19913;-95
2022/05/07 07:50:32;;;;;;;;;;;;;;;17.51;92.60;100309.47;6132209;23;19923;-94
2022/05/07 07:52:58;;;;;;;;;;;;;;;17.52;90.22;100297.75;6129037;23;19913;-94
2022/05/07 07:55:23;;;;;;;;;;;;;;;17.46;90.99;100298.91;6153522;23;20011;-96
2022/05/07 07:57:53;;;;;;;;;;;;;;;17.51;91.04;100299.00;6153950;23;19944;-96
2022/05/07 08:00:18;;;;;;;;;;;;;;;17.70;90.86;100292.03;6129203;23;19923;-96
2022/05/07 08:02:48;;;;;;;;;;;;;;;17.70;90.15;100280.03;6154134;23;19912;-96
2022/05/07 08:05:14;;;;;;;;;;;;;;;17.60;90.41;100276.53;6128156;23;19919;-96
2022/05/07 08:13:08;;;;;;;;;;;;;;;17.88;91.11;100270.66;6131781;23;20275;-95
2022/05/07 08:15:33;;;;;;;;;;;;;;;18.10;88.96;100285.13;6153820;23;19912;-95
2022/05/07 08:17:58;;;;;;;;;;;;;;;18.29;87.89;100274.47;6128675;23;19916;-96
2022/05/07 08:20:24;;;;;;;;;;;;;;;18.37;86.97;100265.19;6151377;23;19909;-87
2022/05/07 08:22:49;;;;;;;;;;;;;;;18.59;85.59;100267.63;6148715;23;19987;-87
2022/05/07 08:25:15;;;;;;;;;;;;;;;18.72;85.79;100278.56;6149362;23;19912;-86
2022/05/07 08:27:40;;;;;;;;;;;;;;;18.85;84.42;100276.97;6124050;23;19952;-87
2022/05/07 08:30:06;;;;;;;;;;;;;;;18.95;82.38;100280.44;6148494;23;19916;-87
2022/05/07 08:32:31;;;;;;;;;;;;;;;19.06;81.59;100274.97;6099473;23;19983;-87
2022/05/07 08:34:59;;;;;;;;;;;;;;;19.13;82.67;100285.78;6123404;23;19931;-87
2022/05/07 08:37:25;;;;;;;;;;;;;;;19.28;81.13;100280.13;6150228;23;19927;-87
2022/05/07 08:39:50;;;;;;;;;;;;;;;19.18;81.74;100282.28;6148687;23;20410;-87
2022/05/07 08:42:15;;;;;;;;;;;;;;;19.18;80.30;100284.31;6149108;23;19920;-87
2022/05/07 08:44:42;;;;;;;;;;;;;;;19.45;80.27;100301.59;6148613;23;19909;-88
2022/05/07 08:47:07;;;;;;;;;;;;;;;19.76;78.84;100311.47;6124435;23;19916;-85
2022/05/07 08:49:32;;;;;;;;;;;;;;;20.05;76.79;100308.47;6148542;23;19923;-86
2022/05/07 08:52:00;;;;;;;;;;;;;;;20.36;77.90;100307.78;6149779;23;20365;-86
2022/05/07 08:54:26;;;;;;;;;;;;;;;20.71;74.79;100313.19;6147681;23;19959;-86
2022/05/07 08:56:51;;;;;;;;;;;;;;;20.97;73.20;100313.13;6124235;23;19912;-86
2022/05/07 08:59:17;;;;;;;;;;;;;;;21.08;71.72;100316.81;6149325;23;19916;-87
2022/05/07 09:01:43;;;;;;;;;;;;;;;21.21;72.25;100313.59;6125845;23;19988;-86
2022/05/07 09:04:09;;;;;;;;;;;;;;;21.16;71.13;100312.28;6123391;23;19924;-86
2022/05/07 09:06:35;;;;;;;;;;;;;;;21.17;71.21;100310.22;6150671;23;19967;-86
2022/05/07 09:09:00;;;;;;;;;;;;;;;21.10;71.43;100305.81;6149514;23;20378;-86
2022/05/07 09:11:29;;;;;;;;;;;;;;;21.04;70.29;100304.97;6150121;23;19995;-86
2022/05/07 09:14:04;;;;;;;;;;;;;;;20.91;72.00;100301.81;6149245;23;19967;-86
2022/05/07 09:16:39;;;;;;;;;;;;;;;21.06;72.59;100299.63;6151952;23;19913;-86
2022/05/07 09:19:05;;;;;;;;;;;;;;;20.88;71.16;100300.78;6124723;23;19951;-86
2022/05/07 09:21:32;;;;;;;;;;;;;;;20.94;71.92;100298.00;6125685;23;19920;-86
2022/05/07 09:23:57;;;;;;;;;;;;;;;21.07;70.78;100301.16;6125292;23;19920;-86
2022/05/07 09:26:24;;;;;;;;;;;;;;;21.15;69.33;100295.88;6151077;23;19908;-86
2022/05/07 09:28:49;;;;;;;;;;;;;;;21.21;67.96;100297.44;6149897;23;19912;-86
2022/05/07 09:31:22;;;;;;;;;;;;;;;21.30;63.92;100313.38;6149899;23;19923;-86
2022/05/07 09:33:47;;;;;;;;;;;;;;;21.23;61.11;100303.34;6149444;23;19999;-85
2022/05/07 09:36:13;;;;;;;;;;;;;;;21.38;63.91;100292.66;6149639;23;20331;-85
2022/05/07 09:38:38;;;;;;;;;;;;;;;21.40;62.00;100290.09;6150236;23;20267;-86
2022/05/07 09:41:04;;;;;;;;;;;;;;;21.58;62.04;100288.13;6149748;23;19912;-86
2022/05/07 09:43:31;;;;;;;;;;;;;;;21.50;62.08;100287.84;6101190;23;20286;-85
2022/05/07 09:45:56;;;;;;;;;;;;;;;21.52;63.49;100290.13;6149865;23;19912;-86
2022/05/07 09:48:22;;;;;;;;;;;;;;;21.64;62.51;100286.09;6150854;23;20223;-86
2022/05/07 09:50:47;;;;;;;;;;;;;;;21.52;58.72;100292.97;6151801;23;19919;-86
2022/05/07 09:58:43;;;;;;;;;;;;;;;21.26;59.73;100298.75;6130335;23;19987;-85
2022/05/07 10:01:21;;;;;;;;;;;;;;;21.31;58.98;100298.75;6150305;23;20390;-86
2022/05/07 10:04:09;;;;;;;;;;;;;;;21.34;59.70;100294.94;6150344;23;20274;-85
2022/05/07 10:06:45;;;;;;;;;;;;;;;21.34;60.31;100292.13;6127452;23;20642;-85
2022/05/07 10:09:19;;;;;;;;;;;;;;;21.25;58.63;100286.69;6152208;23;19916;-86
2022/05/07 10:11:48;;;;;;;;;;;;;;;21.29;58.48;100289.25;6153420;23;19990;-85
2022/05/07 10:14:22;;;;;;;;;;;;;;;21.18;58.72;100284.34;6126993;23;20377;-85
2022/05/07 10:16:55;;;;;;;;;;;;;;;21.26;59.11;100285.41;6127899;23;20242;-85
2022/05/07 10:19:20;;;;;;;;;;;;;;;21.14;58.83;100283.81;6126395;23;19912;-85
2022/05/07 10:21:55;;;;;;;;;;;;;;;21.21;58.95;100283.34;6151311;23;19926;-86
2022/05/07 10:24:20;;;;;;;;;;;;;;;21.28;57.33;100277.22;6125629;23;19916;-86
2022/05/07 10:26:46;;;;;;;;;;;;;;;21.27;58.27;100275.66;6152294;23;20510;-86
2022/05/07 10:29:21;;;;;;;;;;;;;;;21.26;57.30;100274.13;6149467;23;19940;-86
2022/05/07 10:31:48;;;;;;;;;;;;;;;21.07;59.51;100272.94;6150757;23;19916;-86
2022/05/07 10:34:27;;;;;;;;;;;;;;;21.02;62.25;100281.41;6151060;23;19970;-87
2022/05/07 10:37:00;;;;;;;;;;;;;;;20.52;66.74;100278.19;6150238;23;19967;-86
2022/05/07 10:39:26;;;;;;;;;;;;;;;20.54;67.81;100276.44;6149789;23;19992;-86
2022/05/07 10:41:51;;;;;;;;;;;;;;;20.43;66.25;100271.47;6126177;23;20311;-85
2022/05/07 10:44:17;;;;;;;;;;;;;;;20.64;68.24;100274.19;6149996;23;19935;-87
2022/05/07 10:46:43;;;;;;;;;;;;;;;20.64;65.20;100262.94;6150022;23;19947;-87
2022/05/07 10:49:09;;;;;;;;;;;;;;;20.40;66.27;100272.47;6150685;23;19920;-87
2022/05/07 10:51:38;;;;;;;;;;;;;;;20.34;65.60;100271.63;6150061;23;19974;-87
2022/05/07 10:54:24;;;;;;;;;;;;;;;20.44;64.86;100264.56;6149702;23;19912;-87
2022/05/07 10:56:56;;;;;;;;;;;;;;;20.56;65.31;100262.63;6149048;23;19913;-86
2022/05/07 10:59:22;;;;;;;;;;;;;;;20.86;63.76;100266.69;6122778;23;19988;-88
2022/05/07 11:01:48;;;;;;;;;;;;;;;21.13;61.41;100265.34;6100441;23;20375;-86
2022/05/07 11:04:17;;;;;;;;;;;;;;;21.30;60.29;100273.88;6147378;23;20275;-88
2022/05/07 11:06:47;;;;;;;;;;;;;;;21.51;58.13;100271.69;6125613;23;20236;-87
2022/05/07 11:09:16;;;;;;;;;;;;;;;21.62;57.89;100266.84;6150902;23;19912;-86
2022/05/07 11:53:35;;;;;;;;;;;;;;;20.95;56.18;100262.88;6155012;23;19920;-83
2022/05/07 11:56:07;;;;;;;;;;;;;;;20.94;57.11;100258.53;6152134;23;19986;-85
2022/05/07 11:58:40;;;;;;;;;;;;;;;21.06;57.81;100260.16;6179411;23;20288;-82
2022/05/07 12:01:06;;;;;;;;;;;;;;;21.11;56.45;100261.47;6151146;23;19916;-82
2022/05/07 12:03:31;;;;;;;;;;;;;;;20.80;56.40;100267.91;6124561;23;19919;-82
2022/05/07 12:05:57;;;;;;;;;;;;;;;20.63;56.76;100261.38;6150432;23;19912;-83
2022/05/07 12:08:31;;;;;;;;;;;;;;;20.57;56.53;100257.75;6150625;23;19912;-83
2022/05/07 12:10:58;;;;;;;;;;;;;;;20.53;57.55;100257.22;6098969;23;20329;-82
2022/05/07 12:13:24;;;;;;;;;;;;;;;20.61;57.20;100263.94;6148489;23;20097;-82
2022/05/07 12:18:34;;;;;;;;;;;;;;;20.43;56.05;100262.25;6125682;23;19912;-83
2022/05/07 12:21:00;;;;;;;;;;;;;;;20.41;56.01;100251.50;6121808;23;19912;-83
2022/05/07 12:31:37;;;;;;;;;;;;;;;20.76;56.96;100264.56;6149564;23;20388;-83
2022/05/07 12:34:04;;;;;;;;;;;;;;;20.54;58.02;100261.56;6149957;23;20284;-82
2022/05/07 12:36:30;;;;;;;;;;;;;;;20.55;58.54;100257.47;6150467;23;19963;-83
2022/05/07 12:38:59;;;;;;;;;;;;;;;20.50;59.70;100258.22;6150475;23;19913;-82
2022/05/07 12:41:25;;;;;;;;;;;;;;;20.35;60.50;100253.47;6149868;23;19963;-82
2022/05/07 12:43:51;;;;;;;;;;;;;;;20.46;61.76;100259.19;6149966;23;19943;-83
2022/05/07 12:46:16;;;;;;;;;;;;;;;20.44;61.35;100256.13;6123878;23;20301;-82
2022/05/07 12:48:41;;;;;;;;;;;;;;;20.39;60.76;100254.03;6150930;23;19912;-82
2022/05/07 12:51:08;;;;;;;;;;;;;;;20.50;61.09;100252.59;6150037;23;19992;-82
2022/05/07 12:53:33;;;;;;;;;;;;;;;20.37;60.74;100234.03;6125047;23;19935;-82
2022/05/07 12:55:59;;;;;;;;;;;;;;;20.32;60.60;100248.06;6150046;23;20337;-82
2022/05/07 12:58:24;;;;;;;;;;;;;;;20.10;61.83;100242.22;6151127;23;20253;-82
2022/05/07 13:00:50;;;;;;;;;;;;;;;20.17;63.33;100247.41;6126811;23;20238;-81
2022/05/07 13:03:15;;;;;;;;;;;;;;;20.16;63.50;100243.81;6126140;23;19944;-80
2022/05/07 13:05:41;;;;;;;;;;;;;;;20.21;63.83;100239.50;6152640;23;19909;-81
2022/05/07 13:08:06;;;;;;;;;;;;;;;20.18;63.47;100241.25;6149843;23;19921;-82
2022/05/07 13:10:32;;;;;;;;;;;;;;;20.16;62.80;100228.94;6152054;23;19908;-82
2022/05/07 13:12:59;;;;;;;;;;;;;;;20.03;62.40;100241.38;6125497;23;19983;-81
2022/05/07 13:15:26;;;;;;;;;;;;;;;20.09;63.49;100235.81;6125843;23;20446;-82
2022/05/07 13:17:51;;;;;;;;;;;;;;;20.15;63.28;100227.41;6126076;23;19916;-82
2022/05/07 13:20:17;;;;;;;;;;;;;;;20.18;63.75;100220.78;6151596;23;19912;-82
2022/05/07 13:22:43;;;;;;;;;;;;;;;20.25;62.51;100223.16;6125019;23;19916;-83
2022/05/07 13:25:08;;;;;;;;;;;;;;;20.29;62.96;100223.72;6151539;23;20249;-82
2022/05/07 13:27:34;;;;;;;;;;;;;;;20.25;61.79;100220.34;6152247;23;20039;-82
2022/05/07 13:30:00;;;;;;;;;;;;;;;20.16;63.00;100221.28;6125818;23;19912;-82
2022/05/07 13:32:25;;;;;;;;;;;;;;;20.32;64.34;100219.91;6151684;23;19915;-82
2022/05/07 13:34:51;;;;;;;;;;;;;;;20.46;62.80;100214.09;6150721;23;19917;-82
2022/05/07 13:37:18;;;;;;;;;;;;;;;20.41;61.81;100214.88;6149761;23;20387;-82
2022/05/07 13:39:43;;;;;;;;;;;;;;;20.60;63.24;100215.25;6152136;23;19912;-82
2022/05/07 13:42:11;;;;;;;;;;;;;;;20.55;61.58;100212.38;6152285;23;19975;-82
2022/05/07 13:44:37;;;;;;;;;;;;;;;20.63;62.29;100211.41;6152928;23;19967;-82
2022/05/07 13:47:03;;;;;;;;;;;;;;;20.74;60.58;100211.50;6126092;23;19916;-82